Time;durP1;ratioP1;P1;durP2;ratioP2;P2;SDS_P1;SDS_P2;PMS_P1;PMS_P2;Temp;Humidity;BMP_temperature;BMP_pressure;BME280_temperature;BME280_humidity;BME280_pressure;Samples;Min_cycle;Max_cycle;Signal;HPM_P1;HPM_P2
2023/07/19 00:01:23;;;;;;;3.07;2.80;;;26.90;44.90;;;;;;5032036;28;20915;-68
2023/07/19 00:03:49;;;;;;;2.90;2.60;;;26.90;44.90;;;;;;5032151;28;20190;-68
2023/07/19 00:06:14;;;;;;;8.03;2.73;;;26.90;44.80;;;;;;5032189;28;20598;-68
2023/07/19 00:08:40;;;;;;;4.30;3.07;;;26.90;44.80;;;;;;5031708;28;20751;-68
2023/07/19 00:11:06;;;;;;;3.80;3.40;;;26.90;44.80;;;;;;5035200;28;20179;-68
2023/07/19 00:13:31;;;;;;;3.30;2.73;;;26.90;44.90;;;;;;5035806;28;20589;-68
2023/07/19 00:15:57;;;;;;;3.33;2.60;;;26.90;44.80;;;;;;5035957;28;20200;-67
2023/07/19 00:18:23;;;;;;;3.47;2.90;;;26.90;44.90;;;;;;5035795;28;20612;-68
2023/07/19 00:20:49;;;;;;;2.27;2.07;;;26.90;44.90;;;;;;5034860;28;20432;-68
2023/07/19 00:23:15;;;;;;;3.10;2.13;;;26.90;44.90;;;;;;5034655;28;20279;-67
2023/07/19 00:25:41;;;;;;;2.77;2.57;;;26.90;44.90;;;;;;5035467;28;20194;-68
2023/07/19 00:28:06;;;;;;;2.50;2.17;;;26.90;44.90;;;;;;5034401;28;21003;-68
2023/07/19 00:30:32;;;;;;;2.83;2.50;;;26.90;44.80;;;;;;5035906;28;20218;-68
2023/07/19 00:32:58;;;;;;;3.40;2.40;;;26.90;44.90;;;;;;5035738;28;20609;-67
2023/07/19 00:35:23;;;;;;;3.03;2.77;;;26.90;44.80;;;;;;5035528;28;20254;-68
2023/07/19 00:37:49;;;;;;;4.07;3.07;;;26.90;44.90;;;;;;5035380;28;20195;-68
2023/07/19 00:40:14;;;;;;;3.10;2.57;;;26.80;44.80;;;;;;5035355;28;20176;-67
2023/07/19 00:42:59;;;;;;;3.30;2.53;;;26.90;44.90;;;;;;5035206;28;20167;-68
2023/07/19 00:45:25;;;;;;;2.77;2.00;;;26.90;44.90;;;;;;5035316;28;20163;-68
2023/07/19 00:47:52;;;;;;;2.70;2.50;;;26.80;44.80;;;;;;5035107;28;20509;-68
2023/07/19 00:50:18;;;;;;;3.67;2.57;;;26.80;44.80;;;;;;5034938;28;20438;-68
2023/07/19 00:52:43;;;;;;;3.33;2.43;;;26.80;44.80;;;;;;5034925;28;20537;-66
2023/07/19 00:55:09;;;;;;;4.37;2.67;;;26.90;44.80;;;;;;5035104;28;20198;-68
2023/07/19 00:57:35;;;;;;;3.47;2.70;;;26.90;44.80;;;;;;5034951;28;20211;-67
2023/07/19 01:00:01;;;;;;;2.70;2.50;;;26.80;44.70;;;;;;5034917;28;20508;-67
2023/07/19 01:02:27;;;;;;;4.43;2.70;;;26.80;44.70;;;;;;5034819;28;20171;-67
2023/07/19 01:04:52;;;;;;;3.40;2.83;;;26.80;44.70;;;;;;5034909;28;20472;-67
2023/07/19 01:07:18;;;;;;;3.50;2.20;;;26.80;44.70;;;;;;5034711;28;20191;-67
2023/07/19 01:09:44;;;;;;;4.00;3.10;;;26.80;44.70;;;;;;5034792;28;20267;-67
2023/07/19 01:12:09;;;;;;;3.30;2.90;;;26.80;44.70;;;;;;5035082;28;20215;-68
2023/07/19 01:14:35;;;;;;;2.60;2.40;;;26.80;44.70;;;;;;5034728;28;20731;-68
2023/07/19 01:17:01;;;;;;;2.70;2.50;;;26.80;44.60;;;;;;5034744;28;20241;-68
2023/07/19 01:19:27;;;;;;;3.67;2.60;;;26.80;44.60;;;;;;5034619;28;20407;-67
2023/07/19 01:21:55;;;;;;;3.00;2.30;;;26.80;44.60;;;;;;5034470;28;20179;-68
2023/07/19 01:24:20;;;;;;;3.73;2.87;;;26.80;44.60;;;;;;5034659;28;20180;-67
2023/07/19 01:26:46;;;;;;;3.43;2.93;;;26.80;44.50;;;;;;5034653;28;20411;-68
2023/07/19 01:29:12;;;;;;;2.63;2.43;;;26.80;44.60;;;;;;5034523;28;20195;-68
2023/07/19 01:31:38;;;;;;;3.50;3.00;;;26.80;44.50;;;;;;5034718;28;20421;-68
2023/07/19 01:34:04;;;;;;;3.00;2.67;;;26.80;44.50;;;;;;5034232;28;20196;-68
2023/07/19 01:36:29;;;;;;;4.10;2.20;;;26.80;44.50;;;;;;5034324;28;20198;-68
2023/07/19 01:38:55;;;;;;;3.37;2.60;;;26.80;44.50;;;;;;5034569;28;20564;-68
2023/07/19 01:41:21;;;;;;;3.00;2.50;;;26.80;44.50;;;;;;5034502;28;20698;-68
2023/07/19 01:43:46;;;;;;;3.20;2.70;;;26.80;44.40;;;;;;5034380;28;20183;-68
2023/07/19 01:46:12;;;;;;;2.63;2.40;;;26.80;44.40;;;;;;5034030;28;20171;-67
2023/07/19 01:48:37;;;;;;;3.47;2.90;;;26.80;44.40;;;;;;5032714;28;20762;-67
2023/07/19 01:51:04;;;;;;;3.00;2.40;;;26.70;44.30;;;;;;5034021;28;20152;-68
2023/07/19 01:53:30;;;;;;;2.43;2.20;;;26.80;44.40;;;;;;5034198;28;20703;-68
2023/07/19 01:55:56;;;;;;;4.57;2.60;;;26.80;44.40;;;;;;5033933;28;20410;-67
2023/07/19 01:58:21;;;;;;;2.50;2.20;;;26.80;44.40;;;;;;5032844;28;20230;-68
2023/07/19 02:00:47;;;;;;;3.63;2.50;;;26.70;44.30;;;;;;5033845;28;20702;-68
2023/07/19 02:03:12;;;;;;;3.37;3.00;;;26.70;44.40;;;;;;5033796;28;20171;-68
2023/07/19 02:05:38;;;;;;;3.40;2.63;;;26.70;44.40;;;;;;5033842;28;20176;-67
2023/07/19 02:08:04;;;;;;;3.53;2.73;;;26.70;44.40;;;;;;5033647;28;20199;-68
2023/07/19 02:10:29;;;;;;;3.60;2.53;;;26.70;44.40;;;;;;5033777;28;20172;-67
2023/07/19 02:12:55;;;;;;;2.73;2.50;;;26.70;44.40;;;;;;5033589;28;20239;-68
2023/07/19 02:15:20;;;;;;;3.80;2.50;;;26.70;44.40;;;;;;5033583;28;20664;-67
2023/07/19 02:17:46;;;;;;;2.97;2.40;;;26.70;44.40;;;;;;5033495;28;20198;-68
2023/07/19 02:20:12;;;;;;;2.73;2.47;;;26.70;44.40;;;;;;5033494;28;20174;-68
2023/07/19 02:22:39;;;;;;;3.23;2.80;;;26.70;44.40;;;;;;5033378;28;20168;-67
2023/07/19 02:25:05;;;;;;;2.80;2.23;;;26.70;44.40;;;;;;5033444;28;20406;-68
2023/07/19 02:27:31;;;;;;;3.53;2.70;;;26.70;44.40;;;;;;5033205;28;20517;-68
2023/07/19 02:29:57;;;;;;;3.37;2.87;;;26.70;44.40;;;;;;5033295;28;20497;-67
2023/07/19 02:32:22;;;;;;;3.03;2.47;;;26.70;44.40;;;;;;5033040;28;20167;-68
2023/07/19 02:34:48;;;;;;;3.10;2.80;;;26.70;44.40;;;;;;5033118;28;20257;-68
2023/07/19 02:37:13;;;;;;;3.40;3.00;;;26.70;44.50;;;;;;5033051;28;20246;-68
2023/07/19 02:39:39;;;;;;;3.50;3.20;;;26.70;44.50;;;;;;5033119;28;20164;-68
2023/07/19 02:42:05;;;;;;;3.10;2.80;;;26.70;44.50;;;;;;5032845;28;20253;-68
2023/07/19 02:44:30;;;;;;;3.20;2.73;;;26.70;44.50;;;;;;5032786;28;20691;-68
2023/07/19 02:46:56;;;;;;;2.87;2.60;;;26.70;44.50;;;;;;5032746;28;20190;-67
2023/07/19 02:49:23;;;;;;;2.80;2.60;;;26.70;44.60;;;;;;5032527;28;20203;-67
2023/07/19 02:51:49;;;;;;;3.43;2.80;;;26.70;44.60;;;;;;5032590;28;20167;-68
2023/07/19 02:54:15;;;;;;;3.40;3.10;;;26.70;44.60;;;;;;5032473;28;20476;-68
2023/07/19 02:56:41;;;;;;;3.80;2.80;;;26.70;44.60;;;;;;5032546;28;20202;-68
2023/07/19 02:59:06;;;;;;;3.20;2.50;;;26.70;44.60;;;;;;5032362;28;20422;-68
2023/07/19 03:01:32;;;;;;;3.60;2.90;;;26.70;44.60;;;;;;5032406;28;20168;-67
2023/07/19 03:03:59;;;;;;;3.80;2.53;;;26.70;44.70;;;;;;5032380;28;20644;-68
2023/07/19 03:06:25;;;;;;;2.77;2.53;;;26.70;44.70;;;;;;5032607;28;20179;-67
2023/07/19 03:08:50;;;;;;;4.67;2.70;;;26.70;44.80;;;;;;5032287;28;20567;-68
2023/07/19 03:11:16;;;;;;;3.80;2.97;;;26.70;44.90;;;;;;5032634;28;20172;-68
2023/07/19 03:13:41;;;;;;;3.80;3.27;;;26.70;45.00;;;;;;5032163;28;20562;-67
2023/07/19 03:16:07;;;;;;;3.20;2.80;;;26.70;45.10;;;;;;5031333;28;20207;-68
2023/07/19 03:18:32;;;;;;;4.67;2.77;;;26.70;45.10;;;;;;5032137;28;20206;-67
2023/07/19 03:20:59;;;;;;;3.17;2.70;;;26.70;45.10;;;;;;5032217;28;20172;-68
2023/07/19 03:23:26;;;;;;;3.93;2.83;;;26.70;45.20;;;;;;5032158;28;20560;-68
2023/07/19 03:25:51;;;;;;;3.60;3.10;;;26.70;45.30;;;;;;5032114;28;20406;-68
2023/07/19 03:28:17;;;;;;;3.07;2.70;;;26.70;45.30;;;;;;5031962;28;20434;-67
2023/07/19 03:30:43;;;;;;;3.47;3.17;;;26.70;45.40;;;;;;5032022;28;20170;-67
2023/07/19 03:33:08;;;;;;;3.60;3.10;;;26.70;45.40;;;;;;5032226;28;20203;-68
2023/07/19 03:35:34;;;;;;;3.90;2.93;;;26.70;45.50;;;;;;5031962;28;20171;-67
2023/07/19 03:37:59;;;;;;;3.50;3.10;;;26.70;45.50;;;;;;5031916;28;20195;-68
2023/07/19 03:40:25;;;;;;;2.93;2.70;;;26.70;46.10;;;;;;5032185;28;20254;-68
2023/07/19 03:42:51;;;;;;;4.57;3.10;;;26.70;45.60;;;;;;5031924;28;20695;-68
2023/07/19 03:45:17;;;;;;;5.00;3.20;;;26.70;45.60;;;;;;5033980;28;20167;-68
2023/07/19 03:47:42;;;;;;;3.60;2.73;;;26.70;45.70;;;;;;5035925;28;20426;-68
2023/07/19 03:50:08;;;;;;;3.67;3.30;;;26.70;45.70;;;;;;5035860;28;20206;-68
2023/07/19 03:52:34;;;;;;;3.47;3.10;;;26.70;45.70;;;;;;5035943;28;20289;-68
2023/07/19 03:55:00;;;;;;;3.83;3.10;;;26.70;45.70;;;;;;5035917;28;20203;-68
2023/07/19 03:57:25;;;;;;;4.30;3.30;;;26.70;45.80;;;;;;5035796;28;20673;-67
2023/07/19 03:59:51;;;;;;;3.17;2.70;;;26.70;45.80;;;;;;5034579;28;20183;-68
2023/07/19 04:02:17;;;;;;;3.87;3.00;;;26.70;45.90;;;;;;5035794;28;20179;-68
2023/07/19 04:04:42;;;;;;;3.37;2.90;;;26.70;45.90;;;;;;5035630;28;20421;-68
2023/07/19 04:07:08;;;;;;;3.60;3.00;;;26.70;45.90;;;;;;5035621;28;20179;-67
2023/07/19 04:09:34;;;;;;;2.80;2.50;;;26.70;46.00;;;;;;5035632;28;20167;-67
2023/07/19 04:12:00;;;;;;;4.73;3.63;;;26.70;46.00;;;;;;5035657;28;20179;-68
2023/07/19 04:14:25;;;;;;;5.13;3.40;;;26.70;46.00;;;;;;5035690;28;20207;-68
2023/07/19 04:16:51;;;;;;;4.67;3.27;;;26.70;46.00;;;;;;5035490;28;20414;-68
2023/07/19 04:19:16;;;;;;;3.70;3.40;;;26.70;46.10;;;;;;5035140;28;20225;-67
2023/07/19 04:21:42;;;;;;;4.17;3.33;;;26.70;46.10;;;;;;5035398;28;20182;-67
2023/07/19 04:24:08;;;;;;;5.80;3.73;;;26.70;46.10;;;;;;5035363;28;20266;-68
2023/07/19 04:26:33;;;;;;;4.00;3.50;;;26.70;46.10;;;;;;5034988;28;20641;-67
2023/07/19 04:28:59;;;;;;;3.47;2.90;;;26.70;46.20;;;;;;5034795;28;20226;-67
2023/07/19 04:31:25;;;;;;;3.50;3.10;;;26.70;46.10;;;;;;5034755;28;20586;-68
2023/07/19 04:33:50;;;;;;;3.93;3.30;;;26.70;46.20;;;;;;5034773;28;20210;-68
2023/07/19 04:36:16;;;;;;;5.43;3.90;;;26.70;46.20;;;;;;5033926;28;20168;-67
2023/07/19 04:38:42;;;;;;;5.40;3.50;;;26.70;46.30;;;;;;5035310;28;20198;-68
2023/07/19 04:41:09;;;;;;;3.97;2.83;;;26.70;46.30;;;;;;5036347;28;20515;-68
2023/07/19 04:43:35;;;;;;;6.60;4.00;;;26.70;46.20;;;;;;5034680;28;20415;-67
2023/07/19 04:46:01;;;;;;;3.53;3.23;;;26.70;46.30;;;;;;5035813;28;20412;-68
2023/07/19 04:48:26;;;;;;;4.67;3.13;;;26.70;46.20;;;;;;5035543;28;20446;-68
2023/07/19 04:50:56;;;;;;;5.50;3.23;;;26.70;46.30;;;;;;5035582;28;20191;-68
2023/07/19 04:53:22;;;;;;;4.60;3.43;;;26.70;46.30;;;;;;5035672;28;20195;-67
2023/07/19 04:55:51;;;;;;;3.70;2.90;;;26.70;46.30;;;;;;5035742;28;20541;-68
2023/07/19 04:58:17;;;;;;;3.93;3.50;;;26.70;46.30;;;;;;5035341;28;20476;-67
2023/07/19 05:00:43;;;;;;;4.30;3.00;;;26.70;46.30;;;;;;5036031;28;20407;-67
2023/07/19 05:03:10;;;;;;;3.20;2.90;;;26.70;46.30;;;;;;5035454;28;20776;-67
2023/07/19 05:05:35;;;;;;;4.47;3.20;;;26.70;46.30;;;;;;5034652;28;20180;-68
2023/07/19 05:08:04;;;;;;;2.93;2.60;;;26.70;46.30;;;;;;5035275;28;20434;-67
2023/07/19 05:10:30;;;;;;;3.40;3.00;;;26.70;46.30;;;;;;5036214;28;20214;-69
2023/07/19 05:12:56;;;;;;;3.47;2.93;;;26.70;46.30;;;;;;5043200;28;20418;-68
2023/07/19 05:15:22;;;;;;;4.10;3.30;;;26.70;46.30;;;;;;5054302;28;20401;-67
2023/07/19 05:17:47;;;;;;;3.43;3.13;;;26.70;46.20;;;;;;5054044;28;20245;-67
2023/07/19 05:20:13;;;;;;;5.73;3.27;;;26.70;46.30;;;;;;5054305;28;20697;-68
2023/07/19 05:22:39;;;;;;;4.43;3.30;;;26.70;46.30;;;;;;5054337;28;20171;-67
2023/07/19 05:25:05;;;;;;;4.10;3.70;;;26.70;46.30;;;;;;5054319;28;20467;-68
2023/07/19 05:27:31;;;;;;;3.40;2.80;;;26.70;46.20;;;;;;5053167;28;20269;-68
2023/07/19 05:29:56;;;;;;;3.60;3.30;;;26.70;46.30;;;;;;5053916;28;20211;-68
2023/07/19 05:32:22;;;;;;;5.10;3.50;;;26.70;46.20;;;;;;5054134;28;20171;-67
2023/07/19 05:34:47;;;;;;;3.40;3.03;;;26.70;46.20;;;;;;5053898;28;20203;-67
2023/07/19 05:37:13;;;;;;;4.80;3.63;;;26.70;46.30;;;;;;5054144;28;20175;-68
2023/07/19 05:39:38;;;;;;;3.53;3.00;;;26.70;46.30;;;;;;5053913;28;20657;-67
2023/07/19 05:42:05;;;;;;;4.60;3.70;;;26.70;46.30;;;;;;5054256;28;20171;-68
2023/07/19 05:44:31;;;;;;;3.40;3.10;;;26.70;46.40;;;;;;5054155;28;20179;-68
2023/07/19 05:46:56;;;;;;;6.13;3.43;;;26.70;46.30;;;;;;5052463;28;20422;-68
2023/07/19 05:49:22;;;;;;;3.43;2.90;;;26.70;46.40;;;;;;5053552;28;20210;-68
2023/07/19 05:51:48;;;;;;;4.00;3.57;;;26.70;46.40;;;;;;5053723;28;20184;-68
2023/07/19 05:54:14;;;;;;;3.10;2.80;;;26.70;46.50;;;;;;5052680;28;20218;-68
2023/07/19 05:56:39;;;;;;;3.73;3.30;;;26.70;46.40;;;;;;5053666;28;20171;-68
2023/07/19 05:59:05;;;;;;;6.60;3.50;;;26.70;46.40;;;;;;5053414;28;20429;-67
2023/07/19 06:01:31;;;;;;;4.00;3.30;;;26.70;46.40;;;;;;5052342;28;20181;-68
2023/07/19 06:03:56;;;;;;;9.50;3.70;;;26.70;46.50;;;;;;5052156;28;20190;-68
2023/07/19 06:06:22;;;;;;;4.60;3.60;;;26.70;46.50;;;;;;5053437;28;20171;-68
2023/07/19 06:08:48;;;;;;;4.20;3.60;;;26.70;46.50;;;;;;5052442;28;20195;-68
2023/07/19 06:11:13;;;;;;;4.60;3.43;;;26.70;46.50;;;;;;5053498;28;20171;-67
2023/07/19 06:13:39;;;;;;;4.30;3.83;;;26.70;46.50;;;;;;5046513;28;20203;-66
2023/07/19 06:16:05;;;;;;;4.07;3.67;;;26.70;46.50;;;;;;5032136;28;20183;-68
2023/07/19 06:18:30;;;;;;;4.13;3.73;;;26.70;46.40;;;;;;5030887;28;20195;-68
2023/07/19 06:20:56;;;;;;;4.57;3.50;;;26.80;46.40;;;;;;5031970;28;20414;-68
2023/07/19 06:23:22;;;;;;;4.00;3.00;;;26.80;46.40;;;;;;5033528;28;20262;-68
2023/07/19 06:25:49;;;;;;;3.93;3.33;;;26.80;46.40;;;;;;5033068;28;20175;-68
2023/07/19 06:28:15;;;;;;;4.37;3.33;;;26.70;46.30;;;;;;5033091;28;20223;-68
2023/07/19 06:30:41;;;;;;;6.13;3.53;;;26.80;46.40;;;;;;5033066;28;20468;-68
2023/07/19 06:33:07;;;;;;;4.33;3.70;;;26.70;46.30;;;;;;5033201;28;20450;-68
2023/07/19 06:35:33;;;;;;;4.43;3.40;;;26.80;46.30;;;;;;5032973;28;20437;-67
2023/07/19 06:37:59;;;;;;;7.03;3.80;;;26.70;46.20;;;;;;5032825;28;20187;-68
2023/07/19 06:40:26;;;;;;;7.53;4.37;;;26.70;46.20;;;;;;5032906;28;20409;-68
2023/07/19 06:42:52;;;;;;;4.47;3.40;;;26.70;46.20;;;;;;5032841;28;20472;-68
2023/07/19 06:45:18;;;;;;;4.03;3.60;;;26.70;46.30;;;;;;5032763;28;20410;-68
2023/07/19 06:47:44;;;;;;;4.33;3.57;;;26.70;46.30;;;;;;5032627;28;20931;-68
2023/07/19 06:50:10;;;;;;;4.70;3.30;;;26.70;46.30;;;;;;5032564;28;20453;-68
2023/07/19 06:52:36;;;;;;;4.40;3.30;;;26.70;46.30;;;;;;5032641;28;20194;-68
2023/07/19 06:55:03;;;;;;;4.43;3.50;;;26.70;46.20;;;;;;5032592;28;20199;-68
2023/07/19 06:57:31;;;;;;;4.90;3.13;;;26.70;46.20;;;;;;5032449;28;21060;-66
2023/07/19 06:59:57;;;;;;;3.93;3.30;;;26.70;46.20;;;;;;5031298;28;20785;-68
2023/07/19 07:02:23;;;;;;;4.37;3.40;;;26.70;46.40;;;;;;5033629;28;20406;-68
2023/07/19 07:04:50;;;;;;;4.90;3.70;;;26.70;46.70;;;;;;5032483;28;20433;-67
2023/07/19 07:07:18;;;;;;;3.77;3.30;;;26.70;46.50;;;;;;5032360;28;20183;-67
2023/07/19 07:09:44;;;;;;;3.83;3.40;;;26.70;46.40;;;;;;5032544;28;20402;-66
2023/07/19 07:12:13;;;;;;;3.57;2.97;;;26.70;46.40;;;;;;5032553;28;20787;-68
2023/07/19 07:14:39;;;;;;;3.40;3.10;;;26.70;46.40;;;;;;5032302;28;20462;-67
2023/07/19 07:17:06;;;;;;;3.80;3.40;;;26.70;46.40;;;;;;5032226;28;20406;-68
2023/07/19 07:19:31;;;;;;;4.77;3.37;;;26.70;46.40;;;;;;5032265;28;20406;-68
2023/07/19 07:21:58;;;;;;;5.83;3.60;;;26.70;46.40;;;;;;5032538;28;20480;-68
2023/07/19 07:24:24;;;;;;;4.70;3.40;;;26.70;46.40;;;;;;5032554;28;20184;-68
2023/07/19 07:26:49;;;;;;;4.37;3.40;;;26.70;46.40;;;;;;5032242;28;20787;-67
2023/07/19 07:29:15;;;;;;;4.20;3.00;;;26.70;46.40;;;;;;5032166;28;20199;-67
2023/07/19 07:31:41;;;;;;;4.07;3.43;;;26.70;46.30;;;;;;5032239;28;20178;-68
2023/07/19 07:34:07;;;;;;;3.80;3.20;;;26.70;46.30;;;;;;5032336;28;20580;-67
2023/07/19 07:36:33;;;;;;;4.20;3.07;;;26.70;46.30;;;;;;5032170;28;20171;-68
2023/07/19 07:38:58;;;;;;;4.60;2.90;;;26.70;46.20;;;;;;5032305;28;20438;-68
2023/07/19 07:41:24;;;;;;;4.30;3.30;;;26.70;46.20;;;;;;5030761;28;20175;-68
2023/07/19 07:43:49;;;;;;;6.03;3.60;;;26.70;46.20;;;;;;5031955;28;20556;-68
2023/07/19 07:46:15;;;;;;;3.93;3.10;;;26.70;46.20;;;;;;5031980;28;20172;-67
2023/07/19 07:48:41;;;;;;;5.50;3.43;;;26.70;46.20;;;;;;5031978;28;20211;-67
2023/07/19 07:51:07;;;;;;;4.17;3.33;;;26.70;46.20;;;;;;5032061;28;20298;-67
2023/07/19 07:53:32;;;;;;;3.53;3.17;;;26.70;46.20;;;;;;5032126;28;20481;-68
2023/07/19 07:55:58;;;;;;;3.83;3.17;;;26.70;46.20;;;;;;5031912;28;20250;-68
2023/07/19 07:58:24;;;;;;;4.30;3.60;;;26.70;46.80;;;;;;5031993;28;20214;-68
2023/07/19 08:00:49;;;;;;;4.63;3.43;;;26.70;46.20;;;;;;5031753;28;20282;-68
2023/07/19 08:03:15;;;;;;;4.70;3.13;;;26.80;46.30;;;;;;5032087;28;20187;-68
2023/07/19 08:05:41;;;;;;;4.23;3.47;;;26.70;46.30;;;;;;5031877;28;20519;-68
2023/07/19 08:08:07;;;;;;;3.80;3.43;;;26.80;46.30;;;;;;5031792;28;20191;-67
2023/07/19 08:10:35;;;;;;;5.43;3.73;;;26.70;46.30;;;;;;5032083;28;20922;-68
2023/07/19 08:13:01;;;;;;;3.50;2.90;;;26.80;46.30;;;;;;5031757;28;20426;-67
2023/07/19 08:15:27;;;;;;;3.60;3.30;;;26.80;46.30;;;;;;5031689;28;20403;-67
2023/07/19 08:17:52;;;;;;;3.60;3.30;;;26.70;46.30;;;;;;5031772;28;20687;-68
2023/07/19 08:20:18;;;;;;;4.17;3.50;;;26.80;46.40;;;;;;5031761;28;20545;-67
2023/07/19 08:22:44;;;;;;;5.20;3.80;;;26.80;46.30;;;;;;5031745;28;20736;-68
2023/07/19 08:25:10;;;;;;;3.90;3.50;;;26.80;46.30;;;;;;5031607;28;20171;-67
2023/07/19 08:27:35;;;;;;;3.30;3.00;;;26.80;46.30;;;;;;5031762;28;20283;-68
2023/07/19 08:30:07;;;;;;;3.80;3.40;;;26.80;46.30;;;;;;5031943;28;20179;-68
2023/07/19 08:32:33;;;;;;;4.10;3.70;;;26.80;46.30;;;;;;5035549;28;20192;-68
2023/07/19 08:35:00;;;;;;;4.10;3.70;;;26.80;46.30;;;;;;5035601;28;20446;-68
2023/07/19 08:37:25;;;;;;;4.70;3.80;;;26.80;46.30;;;;;;5035231;28;20440;-66
2023/07/19 08:39:51;;;;;;;5.00;3.90;;;26.80;46.30;;;;;;5035352;28;20410;-67
2023/07/19 08:42:16;;;;;;;4.37;3.20;;;26.80;46.30;;;;;;5035242;28;20168;-68
2023/07/19 08:44:42;;;;;;;3.17;2.87;;;26.80;46.30;;;;;;5033913;28;20234;-67
2023/07/19 08:47:10;;;;;;;6.17;4.40;;;26.80;46.30;;;;;;5035114;28;20199;-68
2023/07/19 08:49:38;;;;;;;4.73;3.83;;;26.90;46.30;;;;;;5035231;28;20708;-68
2023/07/19 08:52:06;;;;;;;3.83;3.20;;;26.80;46.30;;;;;;5034992;28;20406;-68
2023/07/19 08:54:32;;;;;;;2.63;2.43;;;26.80;46.30;;;;;;5034860;28;20867;-68
2023/07/19 08:56:58;;;;;;;4.00;3.27;;;26.80;46.30;;;;;;5034776;28;20433;-68
2023/07/19 08:59:24;;;;;;;3.70;3.40;;;26.80;46.30;;;;;;5034875;28;20414;-67
2023/07/19 09:01:50;;;;;;;6.00;3.53;;;26.80;46.20;;;;;;5033565;28;20175;-68
2023/07/19 09:04:16;;;;;;;3.73;3.43;;;26.80;46.20;;;;;;5033501;28;20417;-67
2023/07/19 09:06:42;;;;;;;4.57;3.90;;;26.80;46.20;;;;;;5034854;28;20911;-68
2023/07/19 09:09:12;;;;;;;4.77;4.00;;;26.90;46.30;;;;;;5034638;28;20191;-67
2023/07/19 09:11:51;;;;;;;4.70;3.27;;;26.90;46.30;;;;;;5034675;28;20174;-68
2023/07/19 09:14:16;;;;;;;8.00;4.30;;;26.90;46.30;;;;;;5034578;28;20453;-67
2023/07/19 09:16:44;;;;;;;5.00;4.10;;;26.90;46.30;;;;;;5034646;28;20410;-67
2023/07/19 09:19:10;;;;;;;4.10;3.50;;;26.80;46.20;;;;;;5034747;28;20223;-67
2023/07/19 09:21:43;;;;;;;4.50;3.33;;;26.90;46.30;;;;;;5033162;28;20418;-67
2023/07/19 09:24:11;;;;;;;3.70;3.37;;;26.90;46.30;;;;;;5034448;28;20417;-67
2023/07/19 09:27:03;;;;;;;4.80;3.30;;;26.90;46.30;;;;;;5034446;28;20407;-67
2023/07/19 09:29:30;;;;;;;4.40;3.67;;;26.90;46.30;;;;;;5033159;28;20425;-67
2023/07/19 09:31:57;;;;;;;3.70;3.40;;;26.90;46.30;;;;;;5032935;28;20869;-67
2023/07/19 09:34:26;;;;;;;5.73;3.70;;;26.90;46.30;;;;;;5034335;28;20458;-67
2023/07/19 09:36:52;;;;;;;7.23;4.20;;;26.90;46.20;;;;;;5032952;28;20935;-66
2023/07/19 09:39:18;;;;;;;3.87;3.47;;;26.90;46.30;;;;;;5034189;28;20425;-67
2023/07/19 09:41:47;;;;;;;8.43;3.97;;;26.90;46.30;;;;;;5033571;28;20406;-67
2023/07/19 09:44:17;;;;;;;4.83;4.13;;;26.90;46.30;;;;;;5033836;28;20430;-67
2023/07/19 09:46:44;;;;;;;4.63;3.63;;;26.90;46.30;;;;;;5034174;28;20501;-66
2023/07/19 09:49:10;;;;;;;4.23;3.13;;;26.90;46.20;;;;;;5034025;28;20905;-67
2023/07/19 09:51:39;;;;;;;3.70;3.30;;;26.90;46.30;;;;;;5033911;28;20518;-67
2023/07/19 09:54:10;;;;;;;5.00;3.07;;;26.90;46.30;;;;;;5033860;28;20505;-67
2023/07/19 09:56:38;;;;;;;3.00;2.80;;;26.90;46.30;;;;;;5034005;28;20902;-67
2023/07/19 09:59:06;;;;;;;5.00;3.50;;;26.90;46.30;;;;;;5032456;28;20849;-67
2023/07/19 10:01:33;;;;;;;4.77;3.83;;;26.90;46.30;;;;;;5032892;28;20497;-67
2023/07/19 10:03:59;;;;;;;3.03;2.73;;;26.90;46.80;;;;;;5032480;28;20406;-67
2023/07/19 10:06:31;;;;;;;4.00;3.40;;;26.90;46.30;;;;;;5033760;28;20419;-67
2023/07/19 10:09:22;;;;;;;4.20;3.50;;;26.90;46.30;;;;;;5032340;28;20195;-67
2023/07/19 10:11:49;;;;;;;5.47;3.53;;;26.90;46.20;;;;;;5033508;28;20409;-67
2023/07/19 10:14:25;;;;;;;4.23;3.40;;;26.90;46.20;;;;;;5033435;28;20454;-66
2023/07/19 10:16:57;;;;;;;3.70;3.20;;;26.90;46.20;;;;;;5033302;28;20440;-67
2023/07/19 10:19:23;;;;;;;4.40;3.47;;;26.90;46.20;;;;;;4999817;28;20438;-67
2023/07/19 10:22:07;;;;;;;3.50;3.20;;;26.90;46.20;;;;;;5033464;28;20924;-67
2023/07/19 10:24:37;;;;;;;5.27;3.73;;;26.90;46.10;;;;;;5033428;28;20410;-67
2023/07/19 10:27:05;;;;;;;7.23;4.40;;;26.90;46.10;;;;;;5031873;28;20418;-67
2023/07/19 10:29:42;;;;;;;6.47;4.77;;;26.90;46.10;;;;;;5032021;28;20443;-67
2023/07/19 10:32:08;;;;;;;10.03;8.40;;;26.90;46.10;;;;;;5032834;28;20407;-67
2023/07/19 10:34:35;;;;;;;15.87;10.67;;;26.90;46.10;;;;;;5032538;28;20450;-67
2023/07/19 10:37:04;;;;;;;17.80;9.30;;;26.90;46.10;;;;;;5033084;28;20807;-66
2023/07/19 10:39:31;;;;;;;12.37;8.63;;;26.90;46.10;;;;;;5033101;28;20406;-67
2023/07/19 10:41:57;;;;;;;11.73;8.20;;;26.90;46.10;;;;;;5033110;28;20776;-67
2023/07/19 10:44:26;;;;;;;10.50;7.60;;;26.90;46.70;;;;;;5033007;28;20454;-67
2023/07/19 10:46:55;;;;;;;14.00;7.63;;;26.90;46.10;;;;;;5033217;28;20418;-67
2023/07/19 10:49:24;;;;;;;12.40;7.23;;;27.00;46.00;;;;;;5032809;28;20450;-67
2023/07/19 10:51:56;;;;;;;9.87;6.63;;;26.90;46.00;;;;;;5033022;28;20415;-67
2023/07/19 10:54:22;;;;;;;8.30;5.60;;;26.90;46.00;;;;;;5030964;28;20458;-67
2023/07/19 10:56:49;;;;;;;7.50;5.20;;;26.90;46.10;;;;;;5032884;28;20991;-66
2023/07/19 10:59:15;;;;;;;6.40;5.10;;;27.00;46.10;;;;;;5032597;28;20188;-67
2023/07/19 11:01:41;;;;;;;9.20;5.50;;;27.00;46.10;;;;;;5032574;28;20421;-67
2023/07/19 11:04:07;;;;;;;8.43;4.90;;;27.00;46.10;;;;;;5032711;28;20194;-67
2023/07/19 11:06:54;;;;;;;6.60;4.77;;;27.00;46.10;;;;;;5032799;28;20415;-67
2023/07/19 11:09:22;;;;;;;6.60;4.70;;;26.90;46.10;;;;;;5032293;28;20438;-67
2023/07/19 11:11:48;;;;;;;5.70;4.50;;;27.00;46.20;;;;;;5032493;28;20468;-67
2023/07/19 11:14:34;;;;;;;4.50;3.73;;;27.00;46.10;;;;;;5032719;28;20454;-67
2023/07/19 11:17:00;;;;;;;4.80;4.00;;;27.00;46.00;;;;;;5032588;28;20421;-67
2023/07/19 11:19:37;;;;;;;4.90;3.93;;;27.00;46.10;;;;;;5032341;28;20411;-67
2023/07/19 11:22:04;;;;;;;7.33;4.17;;;27.00;46.10;;;;;;5032415;28;20213;-67
2023/07/19 11:24:40;;;;;;;10.77;3.80;;;27.00;46.00;;;;;;5032156;28;20468;-67
2023/07/19 11:27:07;;;;;;;5.50;3.30;;;27.00;46.00;;;;;;5047401;28;20420;-67
2023/07/19 11:29:34;;;;;;;5.20;3.13;;;26.90;45.90;;;;;;5046969;28;20414;-67
2023/07/19 11:32:18;;;;;;;3.40;2.80;;;27.00;45.80;;;;;;5046143;28;20401;-67
2023/07/19 11:34:45;;;;;;;3.33;2.63;;;27.00;45.80;;;;;;5046176;28;20542;-67
2023/07/19 11:37:17;;;;;;;4.50;3.80;;;27.00;45.90;;;;;;5043370;28;20437;-68
2023/07/19 11:39:43;;;;;;;3.70;3.40;;;27.00;45.90;;;;;;5052011;28;20409;-67
2023/07/19 11:42:09;;;;;;;4.10;3.13;;;27.00;45.90;;;;;;5052100;28;20406;-66
2023/07/19 11:44:42;;;;;;;4.90;3.20;;;27.00;45.90;;;;;;5052045;28;20170;-68
2023/07/19 11:47:08;;;;;;;2.87;2.53;;;27.00;45.80;;;;;;5050694;28;20630;-64
2023/07/19 11:49:33;;;;;;;3.33;2.90;;;27.00;45.80;;;;;;5046134;28;20433;-67
2023/07/19 11:51:59;;;;;;;3.40;3.10;;;27.00;45.80;;;;;;5032209;28;20664;-67
2023/07/19 11:54:25;;;;;;;4.93;3.23;;;27.00;45.80;;;;;;5031902;28;20282;-67
2023/07/19 11:56:50;;;;;;;4.67;2.90;;;27.00;45.80;;;;;;5032076;28;20277;-67
2023/07/19 11:59:16;;;;;;;5.00;2.30;;;27.00;45.80;;;;;;5031928;28;20594;-67
2023/07/19 12:01:42;;;;;;;3.60;3.10;;;27.00;45.80;;;;;;5032002;28;20702;-68
2023/07/19 12:04:08;;;;;;;3.43;3.13;;;27.00;45.70;;;;;;5032231;28;20247;-68
2023/07/19 12:06:34;;;;;;;4.90;2.77;;;27.00;45.80;;;;;;5034384;28;20266;-67
2023/07/19 12:08:59;;;;;;;4.10;3.00;;;27.00;45.70;;;;;;5035773;28;20532;-66
2023/07/19 12:11:25;;;;;;;4.07;2.73;;;27.00;45.80;;;;;;5034710;28;20176;-68
2023/07/19 12:13:51;;;;;;;4.03;3.10;;;27.00;45.70;;;;;;5036107;28;20676;-67
2023/07/19 12:16:16;;;;;;;3.87;3.10;;;27.00;45.70;;;;;;5035996;28;20551;-66
2023/07/19 12:18:42;;;;;;;3.97;2.43;;;27.00;45.70;;;;;;5035674;28;20669;-67
2023/07/19 12:21:08;;;;;;;3.93;2.73;;;27.00;45.70;;;;;;5035722;28;20168;-67
2023/07/19 12:23:34;;;;;;;4.20;3.33;;;27.10;45.70;;;;;;5035749;28;20176;-67
2023/07/19 12:25:59;;;;;;;3.33;2.47;;;27.00;45.70;;;;;;5035700;28;20226;-68
2023/07/19 12:28:25;;;;;;;4.17;2.67;;;27.00;45.70;;;;;;5035352;28;20706;-68
2023/07/19 12:30:51;;;;;;;6.33;3.03;;;27.10;45.80;;;;;;5035484;28;20187;-67
2023/07/19 12:33:17;;;;;;;5.60;3.07;;;27.10;45.80;;;;;;5034330;28;20296;-67
2023/07/19 12:35:47;;;;;;;4.90;3.37;;;27.00;45.70;;;;;;5055465;28;20182;-67
2023/07/19 12:38:13;;;;;;;3.33;2.90;;;27.10;45.40;;;;;;5055257;28;20429;-67
2023/07/19 12:40:39;;;;;;;2.90;2.60;;;27.00;45.20;;;;;;5055433;28;20463;-67
2023/07/19 12:43:05;;;;;;;5.17;2.77;;;27.00;45.30;;;;;;5055152;28;20932;-65